createdAt,value
2023-05-14T00:02:04.197Z,18.65
2023-05-14T00:04:31.008Z,19.95
2023-05-14T00:06:58.734Z,21.73
2023-05-14T00:09:25.543Z,23.45
2023-05-14T00:11:52.478Z,19.10
2023-05-14T00:14:19.534Z,19.95
2023-05-14T00:16:46.203Z,19.05
2023-05-14T00:19:12.843Z,19.88
2023-05-14T00:21:39.482Z,17.67
2023-05-14T00:24:06.280Z,19.10
2023-05-14T00:26:32.983Z,18.58
2023-05-14T00:28:59.672Z,20.30
2023-05-14T00:31:26.449Z,16.40
2023-05-14T00:33:53.156Z,19.20
2023-05-14T00:36:20.065Z,19.02
2023-05-14T00:38:46.818Z,17.00
2023-05-14T00:41:13.493Z,18.75
2023-05-14T00:43:40.493Z,19.55
2023-05-14T00:46:07.188Z,19.45
2023-05-14T00:48:34.238Z,19.42
2023-05-14T00:51:00.887Z,21.52
2023-05-14T00:53:27.530Z,20.52
2023-05-14T00:55:54.142Z,19.33
2023-05-14T00:58:20.849Z,19.10
2023-05-14T01:00:47.646Z,20.38
2023-05-14T01:03:14.485Z,19.35
2023-05-14T01:08:29.511Z,20.70
2023-05-14T01:11:17.897Z,19.63
2023-05-14T01:14:07.460Z,20.40
2023-05-14T01:16:34.841Z,19.27
2023-05-14T01:19:01.750Z,21.23
2023-05-14T01:21:35.232Z,18.77
2023-05-14T01:24:01.880Z,20.02
2023-05-14T01:26:30.451Z,18.48
2023-05-14T01:29:01.720Z,19.35
2023-05-14T01:31:29.546Z,18.15
2023-05-14T01:33:56.311Z,17.25
2023-05-14T01:36:23.026Z,17.05
2023-05-14T01:38:49.920Z,20.67
2023-05-14T01:41:16.657Z,17.20
2023-05-14T01:43:44.741Z,17.40
2023-05-14T01:46:11.446Z,17.95
2023-05-14T01:48:38.130Z,18.05
2023-05-14T01:51:04.839Z,18.13
2023-05-14T01:53:31.531Z,16.35
2023-05-14T01:55:58.216Z,19.10
2023-05-14T01:58:25.043Z,17.15
2023-05-14T02:00:51.703Z,17.23
2023-05-14T02:03:18.428Z,23.80
2023-05-14T02:05:45.489Z,21.23
2023-05-14T02:08:12.159Z,21.45
2023-05-14T02:10:38.846Z,26.55
2023-05-14T02:13:05.551Z,17.85
2023-05-14T02:15:32.137Z,21.27
2023-05-14T02:17:58.841Z,22.08
2023-05-14T02:20:25.730Z,21.70
2023-05-14T02:22:52.528Z,27.20
2023-05-14T02:25:19.327Z,24.85
2023-05-14T02:27:46.494Z,33.70
2023-05-14T02:30:13.231Z,27.63
2023-05-14T02:32:39.906Z,22.52
2023-05-14T02:35:07.112Z,22.17
2023-05-14T02:37:34.747Z,22.20
2023-05-14T02:40:01.745Z,21.13
2023-05-14T02:42:28.538Z,25.45
2023-05-14T02:44:55.314Z,24.50
2023-05-14T02:47:22.012Z,25.35
2023-05-14T02:49:48.772Z,24.60
2023-05-14T02:52:15.544Z,25.88
2023-05-14T02:54:42.369Z,22.40
2023-05-14T02:57:09.025Z,27.40
2023-05-14T02:59:36.145Z,22.35
2023-05-14T03:02:03.263Z,21.73
2023-05-14T03:04:30.336Z,22.30
2023-05-14T03:06:57.039Z,23.15
2023-05-14T03:09:23.783Z,22.27
2023-05-14T03:11:50.570Z,24.73
2023-05-14T03:14:17.172Z,20.92
2023-05-14T03:16:43.835Z,22.30
2023-05-14T03:19:10.879Z,22.25
2023-05-14T03:21:37.562Z,23.67
2023-05-14T03:24:04.422Z,21.85
2023-05-14T03:26:31.024Z,24.13
2023-05-14T03:28:57.711Z,24.13
2023-05-14T03:31:24.681Z,23.45
2023-05-14T03:33:51.511Z,24.55
2023-05-14T03:36:18.344Z,22.73
2023-05-14T03:38:44.997Z,21.42
2023-05-14T03:41:11.667Z,22.27
2023-05-14T03:43:38.348Z,22.63
2023-05-14T03:46:05.104Z,27.55
2023-05-14T03:48:31.895Z,21.38
2023-05-14T03:50:58.613Z,31.05
2023-05-14T03:53:25.474Z,27.58
2023-05-14T03:55:52.563Z,21.17
2023-05-14T03:58:19.388Z,25.63
2023-05-14T04:00:46.357Z,23.67
2023-05-14T04:03:13.157Z,27.48
2023-05-14T04:05:43.244Z,25.40
2023-05-14T04:08:15.790Z,24.45
2023-05-14T04:10:46.564Z,21.88
2023-05-14T04:13:13.296Z,24.23
2023-05-14T04:15:40.022Z,25.83
2023-05-14T04:18:06.763Z,25.02
2023-05-14T04:20:33.351Z,26.90
2023-05-14T04:23:00.161Z,28.35
2023-05-14T04:25:27.001Z,28.15
2023-05-14T04:27:53.838Z,23.60
2023-05-14T04:30:21.012Z,20.27
2023-05-14T04:32:47.893Z,23.15
2023-05-14T04:35:14.601Z,22.65
2023-05-14T04:37:41.492Z,26.60
2023-05-14T04:40:10.340Z,27.90
2023-05-14T04:42:37.393Z,31.02
2023-05-14T04:45:05.215Z,25.00
2023-05-14T04:47:32.380Z,24.90
2023-05-14T04:49:59.022Z,27.60
2023-05-14T04:52:25.926Z,30.10
2023-05-14T04:54:52.713Z,27.75
2023-05-14T04:57:19.554Z,25.77
2023-05-14T04:59:46.265Z,30.30
2023-05-14T05:02:12.910Z,25.90
2023-05-14T05:04:39.544Z,26.15
2023-05-14T05:07:06.293Z,27.40
2023-05-14T05:09:32.941Z,27.88
2023-05-14T05:12:01.405Z,28.27
2023-05-14T05:14:28.047Z,26.48
2023-05-14T05:16:54.766Z,28.08
2023-05-14T05:19:29.100Z,22.50
2023-05-14T05:22:02.864Z,25.73
2023-05-14T05:24:29.509Z,24.85
2023-05-14T05:26:56.703Z,30.73
2023-05-14T05:29:24.670Z,27.90
2023-05-14T05:31:51.441Z,26.25
2023-05-14T05:34:18.266Z,24.35
2023-05-14T05:36:44.971Z,26.92
2023-05-14T05:39:11.619Z,23.17
2023-05-14T05:41:38.334Z,26.02
2023-05-14T05:44:05.245Z,26.38
2023-05-14T05:46:31.843Z,25.35
2023-05-14T05:48:58.514Z,24.63
2023-05-14T05:51:25.185Z,24.50
2023-05-14T05:53:51.777Z,27.40
2023-05-14T05:56:18.469Z,26.67
2023-05-14T05:58:45.141Z,27.60
2023-05-14T06:01:11.813Z,31.17
2023-05-14T06:03:38.481Z,25.70
2023-05-14T06:06:05.428Z,27.65
2023-05-14T06:08:32.205Z,28.73
2023-05-14T06:10:59.317Z,26.92
2023-05-14T06:13:26.122Z,28.88
2023-05-14T06:15:52.912Z,25.20
2023-05-14T06:18:19.580Z,30.27
2023-05-14T06:20:46.237Z,25.75
2023-05-14T06:23:13.009Z,27.38
2023-05-14T06:25:39.857Z,27.88
2023-05-14T06:28:06.546Z,26.08
2023-05-14T06:30:36.442Z,28.10
2023-05-14T06:33:10.401Z,28.50
2023-05-14T06:35:37.485Z,26.67
2023-05-14T06:38:04.193Z,27.05
2023-05-14T06:40:31.004Z,22.48
2023-05-14T06:42:57.808Z,26.27
2023-05-14T06:45:24.505Z,22.67
2023-05-14T06:47:51.379Z,21.63
2023-05-14T06:50:18.214Z,25.55
2023-05-14T06:52:45.296Z,25.55
2023-05-14T06:55:11.950Z,27.23
2023-05-14T06:57:40.686Z,19.90
2023-05-14T07:00:08.533Z,23.05
2023-05-14T07:02:35.479Z,20.73
2023-05-14T07:05:28.661Z,20.45
2023-05-14T07:10:22.265Z,23.27
2023-05-14T07:12:49.253Z,22.58
2023-05-14T07:15:15.983Z,26.67
2023-05-14T07:17:45.541Z,22.73
2023-05-14T07:20:13.462Z,19.48
2023-05-14T07:22:40.185Z,21.42
2023-05-14T07:25:07.695Z,22.63
2023-05-14T07:27:34.490Z,21.30
2023-05-14T07:30:01.176Z,23.48
2023-05-14T07:32:27.850Z,20.20
2023-05-14T07:34:54.502Z,27.38
2023-05-14T07:37:24.124Z,31.23
2023-05-14T07:39:50.930Z,22.45
2023-05-14T07:42:31.835Z,23.65
2023-05-14T07:45:02.458Z,18.45
2023-05-14T07:47:29.436Z,17.20
2023-05-14T07:49:56.958Z,19.30
2023-05-14T07:52:24.074Z,23.55
2023-05-14T07:54:51.275Z,20.60
2023-05-14T07:57:18.702Z,17.95
2023-05-14T07:59:45.441Z,21.13
2023-05-14T08:02:12.927Z,22.02
2023-05-14T08:04:39.910Z,19.38
2023-05-14T08:07:08.281Z,19.33
2023-05-14T08:09:34.934Z,21.23
2023-05-14T08:12:01.641Z,16.38
2023-05-14T08:14:28.735Z,17.80
2023-05-14T08:16:55.374Z,17.52
2023-05-14T08:19:23.137Z,17.15
2023-05-14T08:21:49.997Z,22.35
2023-05-14T08:24:17.361Z,18.52
2023-05-14T08:26:44.057Z,20.42
2023-05-14T08:29:12.291Z,24.30
2023-05-14T08:31:40.315Z,20.20
2023-05-14T08:34:07.253Z,20.08
2023-05-14T08:36:36.890Z,18.10
2023-05-14T08:39:03.592Z,19.58
2023-05-14T08:41:30.410Z,19.23
2023-05-14T08:46:41.330Z,17.35
2023-05-14T08:49:43.362Z,20.98
2023-05-14T08:52:10.313Z,18.48
2023-05-14T08:54:36.990Z,16.63
2023-05-14T08:57:04.555Z,19.65
2023-05-14T08:59:31.300Z,27.25
2023-05-14T09:02:01.208Z,19.33
2023-05-14T09:04:27.927Z,17.70
2023-05-14T09:06:55.342Z,20.02
2023-05-14T09:09:22.655Z,22.85
2023-05-14T09:11:50.319Z,22.23
2023-05-14T09:14:17.175Z,18.65
2023-05-14T09:16:45.557Z,21.02
2023-05-14T09:19:13.262Z,20.40
2023-05-14T09:21:40.324Z,26.00
2023-05-14T09:24:07.443Z,20.63
2023-05-14T09:26:34.542Z,17.88
2023-05-14T09:29:02.780Z,17.52
2023-05-14T09:31:31.610Z,16.20
2023-05-14T09:33:58.838Z,17.10
2023-05-14T09:36:27.021Z,14.60
2023-05-14T09:38:56.515Z,15.45
2023-05-14T09:41:23.483Z,16.48
2023-05-14T09:43:51.555Z,15.57
2023-05-14T09:46:18.211Z,15.77
2023-05-14T09:48:45.960Z,13.55
2023-05-14T09:51:13.371Z,14.38
2023-05-14T09:53:41.370Z,13.73
2023-05-14T09:56:08.123Z,16.38
2023-05-14T09:58:34.743Z,14.43
2023-05-14T10:01:01.844Z,19.00
2023-05-14T10:03:29.950Z,16.85
2023-05-14T10:05:58.488Z,12.70
2023-05-14T10:08:26.849Z,10.90
2023-05-14T10:10:55.216Z,14.85
2023-05-14T10:13:24.246Z,12.00
2023-05-14T10:15:57.730Z,12.52
2023-05-14T10:18:24.634Z,11.80
2023-05-14T10:20:57.331Z,14.25
2023-05-14T10:25:50.646Z,10.82
2023-05-14T10:28:17.362Z,11.13
2023-05-14T10:30:45.746Z,11.73
2023-05-14T10:33:15.300Z,11.48
2023-05-14T10:36:02.668Z,14.07
2023-05-14T10:38:30.170Z,15.82
2023-05-14T10:41:00.980Z,17.92
2023-05-14T10:43:29.289Z,16.35
2023-05-14T10:45:56.142Z,13.88
2023-05-14T10:48:22.931Z,11.73
2023-05-14T10:50:52.785Z,12.95
2023-05-14T10:53:20.054Z,10.68
2023-05-14T10:55:47.202Z,13.65
2023-05-14T10:58:13.955Z,11.73
2023-05-14T11:00:40.929Z,12.55
2023-05-14T11:03:07.907Z,9.82
2023-05-14T11:05:37.192Z,10.95
2023-05-14T11:08:06.331Z,12.57
2023-05-14T11:10:32.949Z,11.63
2023-05-14T11:13:00.187Z,11.18
2023-05-14T11:15:28.247Z,9.63
2023-05-14T11:17:55.174Z,9.95
2023-05-14T11:20:22.077Z,9.98
2023-05-14T11:22:50.373Z,11.75
2023-05-14T11:25:18.396Z,10.63
2023-05-14T11:27:45.896Z,10.55
2023-05-14T13:12:52.530Z,6.43
2023-05-14T13:15:19.360Z,6.15
2023-05-14T13:17:46.093Z,9.68
2023-05-14T13:20:12.899Z,6.03
2023-05-14T13:22:39.629Z,6.38
2023-05-14T13:25:07.005Z,5.47
2023-05-14T13:27:35.696Z,6.07
2023-05-14T13:30:02.950Z,5.40
2023-05-14T13:32:29.939Z,4.93
2023-05-14T13:34:56.710Z,6.32
2023-05-14T13:37:24.658Z,4.50
2023-05-14T13:39:51.608Z,4.78
2023-05-14T13:42:20.413Z,4.60
2023-05-14T13:44:47.069Z,3.97
2023-05-14T13:47:13.711Z,6.47
2023-05-14T13:49:40.731Z,4.20
2023-05-14T13:52:07.611Z,7.50
2023-05-14T13:54:34.296Z,4.15
2023-05-14T13:57:00.997Z,4.35
2023-05-14T13:59:27.947Z,4.97
2023-05-14T14:01:54.849Z,4.95
2023-05-14T14:04:22.148Z,6.63
2023-05-14T14:06:49.229Z,5.03
2023-05-14T14:09:15.913Z,4.80
2023-05-14T14:11:42.617Z,4.50
2023-05-14T14:14:09.405Z,5.57
2023-05-14T14:16:36.160Z,5.43
2023-05-14T14:19:03.030Z,5.10
2023-05-14T14:21:29.798Z,5.20
2023-05-14T14:23:56.548Z,3.70
2023-05-14T14:26:23.337Z,4.97
2023-05-14T14:28:50.032Z,4.10
2023-05-14T14:31:17.005Z,3.13
2023-05-14T14:33:43.700Z,3.47
2023-05-14T14:36:10.347Z,4.72
2023-05-14T14:38:37.405Z,4.32
2023-05-14T14:41:04.110Z,2.90
2023-05-14T14:43:31.594Z,3.70
2023-05-14T14:45:58.393Z,3.55
2023-05-14T14:48:27.179Z,4.20
2023-05-14T14:50:54.527Z,4.22
2023-05-14T14:53:21.725Z,3.60
2023-05-14T14:55:48.957Z,3.60
2023-05-14T14:58:15.599Z,3.97
2023-05-14T15:00:42.376Z,4.00
2023-05-14T15:03:10.521Z,4.93
2023-05-14T15:05:37.384Z,3.08
2023-05-14T15:08:04.610Z,2.88
2023-05-14T15:10:31.504Z,4.78
2023-05-14T15:12:58.898Z,3.30
2023-05-14T15:15:26.192Z,3.13
2023-05-14T15:17:52.902Z,5.82
2023-05-14T15:20:19.621Z,6.10
2023-05-14T15:22:46.234Z,4.28
2023-05-14T15:25:12.875Z,4.70
2023-05-14T15:27:39.508Z,13.52
2023-05-14T15:30:07.284Z,11.57
2023-05-14T15:32:34.086Z,5.60
2023-05-14T15:35:01.303Z,4.78
2023-05-14T15:37:27.954Z,4.85
2023-05-14T15:39:54.745Z,4.13
2023-05-14T15:42:21.531Z,6.22
2023-05-14T15:44:48.188Z,5.55
2023-05-14T15:47:14.874Z,5.57
2023-05-14T15:49:41.500Z,5.82
2023-05-14T15:52:08.185Z,10.98
2023-05-14T15:54:34.892Z,8.27
2023-05-14T15:57:01.596Z,7.82
2023-05-14T15:59:28.280Z,5.00
2023-05-14T16:01:55.073Z,4.35
2023-05-14T16:04:21.857Z,7.30
2023-05-14T16:06:48.489Z,5.20
2023-05-14T16:09:15.261Z,6.68
2023-05-14T16:11:42.114Z,5.05
2023-05-14T16:14:08.795Z,4.80
2023-05-14T16:16:36.744Z,5.50
2023-05-14T16:19:03.470Z,4.38
2023-05-14T16:21:30.350Z,5.55
2023-05-14T16:23:57.189Z,7.28
2023-05-14T16:26:23.859Z,8.75
2023-05-14T16:28:50.558Z,8.05
2023-05-14T16:31:17.432Z,10.00
2023-05-14T16:33:44.065Z,6.90
2023-05-14T16:36:11.009Z,9.18
2023-05-14T16:38:44.566Z,10.65
2023-05-14T16:41:19.432Z,10.98
2023-05-14T16:43:46.078Z,12.02
2023-05-14T16:46:12.819Z,8.18
2023-05-14T16:48:39.680Z,7.25
2023-05-14T16:51:06.529Z,3.92
2023-05-14T16:53:33.189Z,5.22
2023-05-14T16:55:59.810Z,6.53
2023-05-14T16:58:26.495Z,4.93
2023-05-14T17:00:53.106Z,9.00
2023-05-14T17:03:20.211Z,15.90
2023-05-14T17:05:46.902Z,5.75
2023-05-14T17:08:14.516Z,4.38
2023-05-14T17:10:41.211Z,4.97
2023-05-14T17:13:07.871Z,7.22
2023-05-14T17:15:35.283Z,7.03
2023-05-14T17:18:02.041Z,5.00
2023-05-14T17:20:29.066Z,5.63
2023-05-14T17:22:55.835Z,7.38
2023-05-14T17:25:24.152Z,4.85
2023-05-14T17:27:51.165Z,4.65
2023-05-14T17:30:17.860Z,4.68
2023-05-14T17:32:44.603Z,7.35
2023-05-14T17:35:11.640Z,12.57
2023-05-14T17:37:38.384Z,6.97
2023-05-14T17:40:05.724Z,9.32
2023-05-14T17:42:32.382Z,6.35
2023-05-14T17:44:59.055Z,5.00
2023-05-14T17:47:25.793Z,5.20
2023-05-14T17:49:52.907Z,4.85
2023-05-14T17:52:19.727Z,6.32
2023-05-14T17:54:46.429Z,5.30
2023-05-14T17:57:13.099Z,5.03
2023-05-14T17:59:39.742Z,6.75
2023-05-14T18:02:07.576Z,5.38
2023-05-14T18:04:34.230Z,3.50
2023-05-14T18:07:01.868Z,3.63
2023-05-14T18:09:28.517Z,4.72
2023-05-14T18:11:56.962Z,4.78
2023-05-14T18:14:23.858Z,5.47
2023-05-14T18:16:51.465Z,8.00
2023-05-14T18:19:18.385Z,6.90
2023-05-14T18:21:47.960Z,4.05
2023-05-14T18:24:14.777Z,3.30
2023-05-14T18:26:41.459Z,5.68
2023-05-14T18:29:08.387Z,4.65
2023-05-14T18:31:37.668Z,4.40
2023-05-14T18:34:04.709Z,4.18
2023-05-14T18:36:31.355Z,4.57
2023-05-14T18:38:58.124Z,5.65
2023-05-14T18:41:24.830Z,4.30
2023-05-14T18:43:51.674Z,4.43
2023-05-14T18:46:18.413Z,3.72
2023-05-14T18:48:45.362Z,3.95
2023-05-14T18:51:12.334Z,3.53
2023-05-14T18:53:39.512Z,4.00
2023-05-14T18:56:06.585Z,4.07
2023-05-14T18:58:33.174Z,4.13
2023-05-14T19:00:59.829Z,3.90
2023-05-14T19:03:26.561Z,4.22
2023-05-14T19:05:53.729Z,4.60
2023-05-14T19:08:20.422Z,3.17
2023-05-14T19:10:47.154Z,3.65
2023-05-14T19:13:15.856Z,7.38
2023-05-14T19:15:43.060Z,5.10
2023-05-14T19:18:12.868Z,3.60
2023-05-14T19:20:39.593Z,6.10
2023-05-14T19:23:06.311Z,6.90
2023-05-14T19:25:33.949Z,6.60
2023-05-14T19:28:02.238Z,4.88
2023-05-14T19:30:28.850Z,5.32
2023-05-14T19:32:55.673Z,11.45
2023-05-14T19:35:22.470Z,6.18
2023-05-14T19:37:49.310Z,4.47
2023-05-14T19:40:15.966Z,5.82
2023-05-14T19:42:42.677Z,6.07
2023-05-14T19:45:10.205Z,8.20
2023-05-14T19:47:36.889Z,6.82
2023-05-14T19:50:03.681Z,5.10
2023-05-14T19:52:30.493Z,5.88
2023-05-14T19:54:57.097Z,8.15
2023-05-14T19:57:23.795Z,6.95
2023-05-14T19:59:50.592Z,19.70
2023-05-14T20:02:18.332Z,5.68
2023-05-14T20:04:46.131Z,6.97
2023-05-14T20:07:15.325Z,6.10
2023-05-14T20:09:42.060Z,6.15
2023-05-14T20:12:09.232Z,7.88
2023-05-14T20:14:36.224Z,7.05
2023-05-14T20:17:02.897Z,6.68
2023-05-14T20:19:29.592Z,6.63
2023-05-14T20:21:56.615Z,8.07
2023-05-14T20:24:23.240Z,6.47
2023-05-14T20:26:49.982Z,7.78
2023-05-14T20:29:16.633Z,6.03
2023-05-14T20:31:43.298Z,8.77
2023-05-14T20:34:09.947Z,7.85
2023-05-14T20:36:37.372Z,8.73
2023-05-14T20:39:06.153Z,10.10
2023-05-14T20:41:32.855Z,8.30
2023-05-14T20:43:59.667Z,7.47
2023-05-14T20:46:26.386Z,8.75
2023-05-14T20:48:55.869Z,8.25
2023-05-14T20:51:22.658Z,7.47
2023-05-14T20:53:49.771Z,8.02
2023-05-14T20:56:16.596Z,7.05
2023-05-14T20:58:43.671Z,6.80
2023-05-14T21:01:10.639Z,6.82
2023-05-14T21:03:37.482Z,8.57
2023-05-14T21:06:04.392Z,6.22
2023-05-14T21:08:33.004Z,8.00
2023-05-14T21:10:59.689Z,7.00
2023-05-14T21:13:26.340Z,6.22
2023-05-14T21:15:53.057Z,7.00
2023-05-14T21:18:19.931Z,7.05
2023-05-14T21:20:46.599Z,5.90
2023-05-14T21:23:13.728Z,6.68
2023-05-14T21:25:40.519Z,9.25
2023-05-14T21:28:07.226Z,7.15
2023-05-14T21:30:34.306Z,6.75
2023-05-14T21:33:01.144Z,6.82
2023-05-14T21:35:27.868Z,7.30
2023-05-14T21:37:54.492Z,7.93
2023-05-14T21:40:21.327Z,7.60
2023-05-14T21:42:48.015Z,7.13
2023-05-14T21:45:14.749Z,7.25
2023-05-14T21:47:41.702Z,6.70
2023-05-14T21:50:08.921Z,8.82
2023-05-14T21:52:36.449Z,8.10
2023-05-14T21:55:03.302Z,7.78
2023-05-14T21:57:33.177Z,6.43
2023-05-14T22:00:01.111Z,7.70
2023-05-14T22:02:28.010Z,7.55
2023-05-14T22:04:54.685Z,7.85
2023-05-14T22:07:21.320Z,7.28
2023-05-14T22:09:48.225Z,7.32
2023-05-14T22:12:15.158Z,7.15
2023-05-14T22:14:41.824Z,7.53
2023-05-14T22:17:08.543Z,7.35
2023-05-14T22:19:35.437Z,7.32
2023-05-14T22:22:02.063Z,7.00
2023-05-14T22:24:28.736Z,6.28
2023-05-14T22:26:55.535Z,5.78
2023-05-14T22:29:22.171Z,5.65
2023-05-14T22:31:48.962Z,6.10
2023-05-14T22:34:16.082Z,5.78
2023-05-14T22:36:46.008Z,7.30
2023-05-14T22:39:13.552Z,6.85
2023-05-14T22:41:40.441Z,7.90
2023-05-14T22:44:07.039Z,6.32
2023-05-14T22:46:33.669Z,7.00
2023-05-14T22:49:00.381Z,7.47
2023-05-14T22:51:27.003Z,6.82
2023-05-14T22:53:54.088Z,5.90
2023-05-14T22:56:22.098Z,7.07
2023-05-14T22:58:48.830Z,7.82
2023-05-14T23:01:15.448Z,6.38
2023-05-14T23:03:42.175Z,7.63
2023-05-14T23:06:08.783Z,6.70
2023-05-14T23:08:35.565Z,9.20
2023-05-14T23:11:02.331Z,7.00
2023-05-14T23:13:29.000Z,10.43
2023-05-14T23:15:55.720Z,7.10
2023-05-14T23:18:24.052Z,7.05
2023-05-14T23:20:50.949Z,8.98
2023-05-14T23:23:17.749Z,7.68
2023-05-14T23:25:44.487Z,7.43
2023-05-14T23:28:11.143Z,9.20
2023-05-14T23:30:37.912Z,7.82
2023-05-14T23:33:04.667Z,6.68
2023-05-14T23:35:31.490Z,8.05
2023-05-14T23:37:58.121Z,6.85
2023-05-14T23:40:24.768Z,6.90
2023-05-14T23:42:51.485Z,5.53
2023-05-14T23:45:18.461Z,5.70
2023-05-14T23:47:45.316Z,6.38
2023-05-14T23:50:12.132Z,6.65
2023-05-14T23:52:38.745Z,6.45
2023-05-14T23:55:06.533Z,5.57
2023-05-14T23:57:33.301Z,6.05
